Kezdőlap
METAR-TAF:

METAR-TAF

Repülőterek :

Frontone, Olaszország

földrajzi szélesség: 43-31N, földrajzi hosszúság: 012-44E, magasság: 570 m

Jelenlegi meteorológiai megfigyelések

A jelentés 1 órával és 0 perccel ezelõtt készült, 22:55 UTC
Keleti szél 4 kt
Hőmérséklet 8°C
Páratartalom 61%
Légköri nyomás 1029 hPa
Látótávolság 10 km, vagy több
felhőtlen 1500 m magasságban, és nincs gomolyfelhõ

METAR: LIVF 222255Z 10004KT CAVOK 08/01 Q1029 RMK SKC MON LIB VAL NIL VIS MIN 9999

Idő: 00:55 (23:55 UTC)


TAF: hiányzik

Meteorológiai megfigyelések és előrejelzések több, mint 4000 repülőtéren (METAR és TAF jelentéseket).

A térképen piros és sárga pontok jelzik az elérhető meteorológiai állomásokat.

Mozgassa az egeret a pont fölött, hogy megjelenjen az állomás neve.

Azután kattintson az időjárási megfigyelések és előrejelzések megtekintéséhez.

A térkép megváltoztatása: kattintson a fekete keresztel jelölt zöld gombra ráközelítéshez, a vonallal jelölt zöld gombra távolításhoz, vagy a zöld nyilakra a szomszédos térképek eléréséhez.


METAR-TAF: